CPA901 VHHH-RPLL
Flight info
| Callsign | CPA901 |
|---|---|
| Flight time | N/A |
| Altitude | 41000 |
| Route | DALOL V642 NOMAN A461 AVMUP W16 TADEL TADEL7R |
| Aircraft | A359/H-SDE2E3GHIJ3J4J5LM1ORWXY/LB1D1 |
Departure
| Time | N/A |
|---|---|
| Airport | Hong Kong International Airport (VHHH) |
Arrival
| Time | 2026-05-03 21:19 |
|---|---|
| Airport | Ninoy Aquino International Airport (RPLL) |
| Time | Latitude | Longitude | Altitude | Speed | Heading |
|---|---|---|---|---|---|
| 2026-05-03 20:15 | 19.53461 | 117.20990 | 38930 ft | 511 kts | 135° |
| 2026-05-03 20:15 | 19.48644 | 117.26534 | 38933 ft | 511 kts | 135° |
| 2026-05-03 20:16 | 19.43823 | 117.32076 | 38935 ft | 511 kts | 135° |
| 2026-05-03 20:16 | 19.39002 | 117.37614 | 38933 ft | 511 kts | 135° |
| 2026-05-03 20:17 | 19.34179 | 117.43149 | 38930 ft | 511 kts | 135° |
| 2026-05-03 20:17 | 19.29357 | 117.48677 | 38927 ft | 511 kts | 135° |
| 2026-05-03 20:18 | 19.24528 | 117.54208 | 38929 ft | 512 kts | 135° |
| 2026-05-03 20:18 | 19.19700 | 117.59731 | 38927 ft | 510 kts | 135° |
| 2026-05-03 20:19 | 19.14892 | 117.65229 | 38930 ft | 508 kts | 135° |
| 2026-05-03 20:19 | 19.10093 | 117.70710 | 38927 ft | 508 kts | 135° |
| 2026-05-03 20:20 | 19.05295 | 117.76186 | 38928 ft | 508 kts | 135° |
| 2026-05-03 20:20 | 19.00529 | 117.81622 | 38931 ft | 507 kts | 135° |
| 2026-05-03 20:21 | 18.95731 | 117.87086 | 38930 ft | 507 kts | 135° |
| 2026-05-03 20:21 | 18.90928 | 117.92550 | 38927 ft | 507 kts | 135° |
| 2026-05-03 20:22 | 18.86126 | 117.98009 | 38928 ft | 507 kts | 135° |
| 2026-05-03 20:22 | 18.81327 | 118.03461 | 38928 ft | 506 kts | 135° |
| 2026-05-03 20:23 | 18.76537 | 118.08897 | 38927 ft | 505 kts | 135° |
| 2026-05-03 20:23 | 18.71747 | 118.14328 | 38931 ft | 505 kts | 135° |
| 2026-05-03 20:24 | 18.66959 | 118.19751 | 38925 ft | 505 kts | 135° |
| 2026-05-03 20:24 | 18.62168 | 118.25174 | 38925 ft | 505 kts | 135° |
| 2026-05-03 20:25 | 18.57376 | 118.30593 | 38929 ft | 505 kts | 135° |
| 2026-05-03 20:25 | 18.52582 | 118.36010 | 38923 ft | 505 kts | 135° |
| 2026-05-03 20:26 | 18.47783 | 118.41427 | 38920 ft | 506 kts | 135° |
| 2026-05-03 20:26 | 18.42986 | 118.46839 | 38927 ft | 505 kts | 135° |
| 2026-05-03 20:27 | 18.38187 | 118.52246 | 38922 ft | 505 kts | 135° |
| 2026-05-03 20:27 | 18.33387 | 118.57651 | 38919 ft | 505 kts | 135° |
| 2026-05-03 20:28 | 18.28584 | 118.63054 | 38922 ft | 505 kts | 135° |
| 2026-05-03 20:28 | 18.23781 | 118.68453 | 38916 ft | 505 kts | 135° |
| 2026-05-03 20:29 | 18.18974 | 118.73851 | 38917 ft | 505 kts | 135° |
| 2026-05-03 20:29 | 18.14167 | 118.79244 | 38917 ft | 505 kts | 135° |
| 2026-05-03 20:30 | 18.09363 | 118.84630 | 38912 ft | 505 kts | 135° |
| 2026-05-03 20:30 | 18.04560 | 118.90010 | 38917 ft | 504 kts | 135° |
| 2026-05-03 20:31 | 17.99928 | 118.94906 | 38915 ft | 501 kts | 143° |
| 2026-05-03 20:31 | 17.94159 | 118.98906 | 38910 ft | 495 kts | 153° |
| 2026-05-03 20:32 | 17.88149 | 119.02436 | 38909 ft | 495 kts | 154° |
| 2026-05-03 20:32 | 17.82106 | 119.05889 | 38908 ft | 495 kts | 154° |
| 2026-05-03 20:33 | 17.76104 | 119.09335 | 38902 ft | 495 kts | 154° |
| 2026-05-03 20:33 | 17.70078 | 119.12815 | 38909 ft | 494 kts | 154° |
| 2026-05-03 20:34 | 17.64066 | 119.16294 | 38905 ft | 494 kts | 154° |
| 2026-05-03 20:34 | 17.58049 | 119.19772 | 38907 ft | 494 kts | 154° |
| 2026-05-03 20:35 | 17.52035 | 119.23246 | 38908 ft | 494 kts | 154° |
| 2026-05-03 20:35 | 17.46023 | 119.26715 | 38905 ft | 493 kts | 154° |
| 2026-05-03 20:36 | 17.40018 | 119.30177 | 38902 ft | 492 kts | 154° |
| 2026-05-03 20:36 | 17.34020 | 119.33633 | 38904 ft | 492 kts | 154° |
| 2026-05-03 20:37 | 17.28028 | 119.37082 | 38903 ft | 492 kts | 154° |
| 2026-05-03 20:37 | 17.22032 | 119.40532 | 38904 ft | 492 kts | 154° |
| 2026-05-03 20:38 | 17.16031 | 119.43981 | 38905 ft | 492 kts | 154° |
| 2026-05-03 20:38 | 17.10037 | 119.47424 | 38904 ft | 492 kts | 154° |
| 2026-05-03 20:39 | 17.04034 | 119.50869 | 38895 ft | 493 kts | 154° |
| 2026-05-03 20:39 | 16.98022 | 119.54317 | 38890 ft | 493 kts | 154° |
| 2026-05-03 20:40 | 16.92009 | 119.57763 | 38901 ft | 493 kts | 154° |
| 2026-05-03 20:40 | 16.86031 | 119.61187 | 38894 ft | 493 kts | 154° |
| 2026-05-03 20:41 | 16.79980 | 119.64650 | 38901 ft | 493 kts | 154° |
| 2026-05-03 20:41 | 16.74007 | 119.68066 | 38899 ft | 493 kts | 154° |
| 2026-05-03 20:42 | 16.67982 | 119.71509 | 38903 ft | 494 kts | 154° |
| 2026-05-03 20:42 | 16.61956 | 119.74950 | 38895 ft | 494 kts | 154° |
| 2026-05-03 20:43 | 16.55925 | 119.78391 | 38896 ft | 494 kts | 154° |
| 2026-05-03 20:43 | 16.49895 | 119.81830 | 38896 ft | 494 kts | 154° |
| 2026-05-03 20:44 | 16.43869 | 119.85264 | 38903 ft | 494 kts | 154° |
| 2026-05-03 20:44 | 16.37837 | 119.88699 | 38910 ft | 494 kts | 154° |
| 2026-05-03 20:45 | 16.31805 | 119.92131 | 38918 ft | 494 kts | 154° |
| 2026-05-03 20:45 | 16.25773 | 119.95561 | 38912 ft | 494 kts | 154° |
| 2026-05-03 20:46 | 16.19738 | 119.98990 | 38910 ft | 494 kts | 154° |
| 2026-05-03 20:46 | 16.16717 | 120.00706 | 38776 ft | 494 kts | 154° |
| 2026-05-03 20:46 | 16.13702 | 120.02418 | 38552 ft | 494 kts | 154° |
| 2026-05-03 20:46 | 16.10682 | 120.04131 | 38288 ft | 495 kts | 154° |
| 2026-05-03 20:47 | 16.07655 | 120.05848 | 38017 ft | 497 kts | 154° |
| 2026-05-03 20:47 | 16.04613 | 120.07572 | 37749 ft | 499 kts | 154° |
| 2026-05-03 20:47 | 16.01565 | 120.09299 | 37486 ft | 500 kts | 154° |
| 2026-05-03 20:47 | 15.98512 | 120.11030 | 37236 ft | 501 kts | 154° |
| 2026-05-03 20:48 | 15.95450 | 120.12765 | 36975 ft | 501 kts | 154° |
| 2026-05-03 20:48 | 15.92383 | 120.14499 | 36729 ft | 502 kts | 154° |
| 2026-05-03 20:48 | 15.89309 | 120.16239 | 36478 ft | 503 kts | 154° |
| 2026-05-03 20:48 | 15.86235 | 120.17979 | 36249 ft | 505 kts | 154° |
| 2026-05-03 20:49 | 15.83152 | 120.19725 | 35854 ft | 502 kts | 154° |
| 2026-05-03 20:49 | 15.80086 | 120.21460 | 35210 ft | 502 kts | 154° |
| 2026-05-03 20:49 | 15.77013 | 120.23198 | 34453 ft | 505 kts | 154° |
| 2026-05-03 20:49 | 15.73914 | 120.24948 | 33595 ft | 508 kts | 154° |
| 2026-05-03 20:50 | 15.70801 | 120.26706 | 32741 ft | 511 kts | 153° |
| 2026-05-03 20:50 | 15.67674 | 120.28471 | 31903 ft | 513 kts | 153° |
| 2026-05-03 20:50 | 15.64570 | 120.30224 | 30986 ft | 517 kts | 153° |
| 2026-05-03 20:50 | 15.61400 | 120.32014 | 30687 ft | 506 kts | 153° |
| 2026-05-03 20:51 | 15.58391 | 120.33714 | 30584 ft | 492 kts | 153° |
| 2026-05-03 20:51 | 15.55424 | 120.35389 | 30442 ft | 480 kts | 153° |
| 2026-05-03 20:51 | 15.52527 | 120.37025 | 30264 ft | 469 kts | 153° |
| 2026-05-03 20:51 | 15.49699 | 120.38623 | 30080 ft | 458 kts | 153° |
| 2026-05-03 20:52 | 15.46932 | 120.40184 | 29874 ft | 448 kts | 153° |
| 2026-05-03 20:52 | 15.44230 | 120.41703 | 29607 ft | 433 kts | 153° |
| 2026-05-03 20:52 | 15.41621 | 120.43095 | 29339 ft | 412 kts | 158° |
| 2026-05-03 20:52 | 15.38970 | 120.44094 | 28809 ft | 399 kts | 164° |
| 2026-05-03 20:53 | 15.36365 | 120.44924 | 28389 ft | 385 kts | 164° |
| 2026-05-03 20:53 | 15.33844 | 120.45714 | 27990 ft | 373 kts | 164° |
| 2026-05-03 20:53 | 15.31370 | 120.46491 | 27610 ft | 370 kts | 164° |
| 2026-05-03 20:53 | 15.28910 | 120.47266 | 27216 ft | 369 kts | 164° |
| 2026-05-03 20:54 | 15.27254 | 120.47789 | 26956 ft | 368 kts | 164° |
| 2026-05-03 20:54 | 15.21595 | 120.49582 | 26056 ft | 364 kts | 163° |
| 2026-05-03 20:54 | 15.19960 | 120.50101 | 25797 ft | 363 kts | 163° |
| 2026-05-03 20:55 | 15.16765 | 120.51114 | 25301 ft | 362 kts | 163° |
| 2026-05-03 20:55 | 15.14362 | 120.51876 | 24915 ft | 361 kts | 163° |
| 2026-05-03 20:55 | 15.11965 | 120.52636 | 24528 ft | 360 kts | 163° |
| 2026-05-03 20:55 | 15.10347 | 120.53150 | 24271 ft | 359 kts | 163° |
| 2026-05-03 20:56 | 15.07959 | 120.53907 | 23886 ft | 359 kts | 163° |
| 2026-05-03 20:56 | 15.05574 | 120.54663 | 23506 ft | 358 kts | 162° |
| 2026-05-03 20:56 | 15.03223 | 120.55408 | 23071 ft | 357 kts | 162° |
| 2026-05-03 20:56 | 15.00826 | 120.56167 | 22668 ft | 355 kts | 162° |
| 2026-05-03 20:57 | 14.98474 | 120.56913 | 22285 ft | 352 kts | 162° |
| 2026-05-03 20:57 | 14.96139 | 120.57653 | 21884 ft | 350 kts | 162° |
| 2026-05-03 20:57 | 14.93818 | 120.58392 | 21496 ft | 349 kts | 162° |
| 2026-05-03 20:57 | 14.91497 | 120.59127 | 21098 ft | 348 kts | 162° |
| 2026-05-03 20:58 | 14.89221 | 120.59845 | 20709 ft | 346 kts | 162° |
| 2026-05-03 20:58 | 14.86929 | 120.60568 | 20331 ft | 344 kts | 162° |
| 2026-05-03 20:58 | 14.84647 | 120.61288 | 19949 ft | 342 kts | 162° |
| 2026-05-03 20:58 | 14.82380 | 120.62004 | 19569 ft | 339 kts | 162° |
| 2026-05-03 20:59 | 14.80131 | 120.62715 | 19187 ft | 337 kts | 162° |
| 2026-05-03 20:59 | 14.77891 | 120.63422 | 18812 ft | 335 kts | 162° |
| 2026-05-03 20:59 | 14.75669 | 120.64124 | 18434 ft | 333 kts | 162° |
| 2026-05-03 20:59 | 14.73458 | 120.64823 | 18034 ft | 331 kts | 162° |
| 2026-05-03 21:00 | 14.71261 | 120.65516 | 17637 ft | 328 kts | 161° |
| 2026-05-03 21:00 | 14.69792 | 120.65980 | 17395 ft | 326 kts | 161° |
| 2026-05-03 21:00 | 14.66988 | 120.66864 | 17209 ft | 311 kts | 161° |
| 2026-05-03 21:00 | 14.64958 | 120.67504 | 17040 ft | 301 kts | 161° |
| 2026-05-03 21:01 | 14.62966 | 120.68134 | 16692 ft | 298 kts | 161° |
| 2026-05-03 21:01 | 14.61052 | 120.68916 | 16329 ft | 294 kts | 151° |
| 2026-05-03 21:01 | 14.59268 | 120.69916 | 16070 ft | 288 kts | 149° |
| 2026-05-03 21:01 | 14.57562 | 120.70920 | 15948 ft | 277 kts | 148° |
| 2026-05-03 21:02 | 14.55921 | 120.71888 | 15773 ft | 269 kts | 148° |
| 2026-05-03 21:02 | 14.54273 | 120.72781 | 15459 ft | 267 kts | 156° |
| 2026-05-03 21:02 | 14.52457 | 120.73087 | 15153 ft | 267 kts | 184° |
| 2026-05-03 21:02 | 14.50712 | 120.72450 | 14846 ft | 271 kts | 213° |
| 2026-05-03 21:03 | 14.49447 | 120.71018 | 14543 ft | 273 kts | 236° |
| 2026-05-03 21:03 | 14.48480 | 120.69322 | 14228 ft | 275 kts | 239° |
| 2026-05-03 21:03 | 14.47553 | 120.67597 | 13918 ft | 275 kts | 239° |
| 2026-05-03 21:03 | 14.46623 | 120.65881 | 13632 ft | 273 kts | 238° |
| 2026-05-03 21:04 | 14.45696 | 120.64189 | 13401 ft | 269 kts | 238° |
| 2026-05-03 21:04 | 14.44774 | 120.62519 | 13132 ft | 267 kts | 238° |
| 2026-05-03 21:04 | 14.43851 | 120.60866 | 12852 ft | 265 kts | 238° |
| 2026-05-03 21:04 | 14.42938 | 120.59223 | 12567 ft | 263 kts | 238° |
| 2026-05-03 21:05 | 14.42033 | 120.57590 | 12294 ft | 261 kts | 238° |
| 2026-05-03 21:05 | 14.41131 | 120.55967 | 12033 ft | 260 kts | 238° |
| 2026-05-03 21:05 | 14.40234 | 120.54357 | 11745 ft | 258 kts | 238° |
| 2026-05-03 21:05 | 14.39342 | 120.52758 | 11479 ft | 256 kts | 238° |
| 2026-05-03 21:06 | 14.38456 | 120.51167 | 11211 ft | 255 kts | 238° |
| 2026-05-03 21:06 | 14.37574 | 120.49585 | 10957 ft | 253 kts | 238° |
| 2026-05-03 21:06 | 14.36700 | 120.48018 | 10703 ft | 252 kts | 238° |
| 2026-05-03 21:06 | 14.35821 | 120.46455 | 10417 ft | 251 kts | 237° |
| 2026-05-03 21:07 | 14.34746 | 120.45104 | 10179 ft | 245 kts | 215° |
| 2026-05-03 21:07 | 14.33200 | 120.44431 | 9925 ft | 238 kts | 183° |
| 2026-05-03 21:07 | 14.31576 | 120.44666 | 9696 ft | 244 kts | 155° |
| 2026-05-03 21:07 | 14.30038 | 120.45476 | 9420 ft | 246 kts | 147° |
| 2026-05-03 21:08 | 14.28565 | 120.46367 | 9187 ft | 245 kts | 147° |
| 2026-05-03 21:08 | 14.27112 | 120.47247 | 8946 ft | 245 kts | 147° |
| 2026-05-03 21:08 | 14.25638 | 120.48128 | 8708 ft | 244 kts | 147° |
| 2026-05-03 21:08 | 14.24228 | 120.49074 | 8461 ft | 240 kts | 136° |
| 2026-05-03 21:09 | 14.23304 | 120.50457 | 8224 ft | 234 kts | 105° |
| 2026-05-03 21:09 | 14.23248 | 120.52092 | 8015 ft | 230 kts | 73° |
| 2026-05-03 21:09 | 14.23890 | 120.53593 | 7791 ft | 229 kts | 60° |
| 2026-05-03 21:09 | 14.24697 | 120.55016 | 7561 ft | 230 kts | 59° |
| 2026-05-03 21:10 | 14.25512 | 120.56426 | 7350 ft | 229 kts | 59° |
| 2026-05-03 21:10 | 14.26316 | 120.57833 | 7118 ft | 227 kts | 59° |
| 2026-05-03 21:10 | 14.27106 | 120.59231 | 6886 ft | 225 kts | 59° |
| 2026-05-03 21:10 | 14.27931 | 120.60591 | 6684 ft | 224 kts | 46° |
| 2026-05-03 21:11 | 14.29011 | 120.61736 | 6468 ft | 222 kts | 47° |
| 2026-05-03 21:11 | 14.29974 | 120.62974 | 6242 ft | 221 kts | 56° |
| 2026-05-03 21:11 | 14.30775 | 120.64318 | 6042 ft | 219 kts | 59° |
| 2026-05-03 21:11 | 14.31538 | 120.65676 | 5824 ft | 219 kts | 60° |
| 2026-05-03 21:12 | 14.32269 | 120.67055 | 5610 ft | 219 kts | 62° |
| 2026-05-03 21:12 | 14.32963 | 120.68445 | 5394 ft | 218 kts | 62° |
| 2026-05-03 21:12 | 14.33639 | 120.69837 | 5182 ft | 217 kts | 63° |
| 2026-05-03 21:12 | 14.34312 | 120.71225 | 5078 ft | 216 kts | 63° |
| 2026-05-03 21:13 | 14.35015 | 120.72600 | 5078 ft | 217 kts | 60° |
| 2026-05-03 21:13 | 14.35766 | 120.73944 | 5078 ft | 216 kts | 60° |
| 2026-05-03 21:13 | 14.36504 | 120.75295 | 5077 ft | 216 kts | 60° |
| 2026-05-03 21:13 | 14.37233 | 120.76658 | 5039 ft | 217 kts | 60° |
| 2026-05-03 21:14 | 14.37955 | 120.77998 | 4830 ft | 211 kts | 60° |
| 2026-05-03 21:14 | 14.38665 | 120.79315 | 4533 ft | 209 kts | 61° |
| 2026-05-03 21:14 | 14.39371 | 120.80628 | 4206 ft | 210 kts | 61° |
| 2026-05-03 21:14 | 14.40080 | 120.81945 | 3899 ft | 210 kts | 60° |
| 2026-05-03 21:15 | 14.40786 | 120.83256 | 3613 ft | 208 kts | 61° |
| 2026-05-03 21:15 | 14.41475 | 120.84538 | 3349 ft | 205 kts | 61° |
| 2026-05-03 21:15 | 14.42163 | 120.85818 | 3091 ft | 203 kts | 61° |
| 2026-05-03 21:15 | 14.42835 | 120.87068 | 2845 ft | 193 kts | 60° |
| 2026-05-03 21:16 | 14.43470 | 120.88252 | 2616 ft | 181 kts | 60° |
| 2026-05-03 21:16 | 14.44076 | 120.89377 | 2350 ft | 177 kts | 59° |
| 2026-05-03 21:16 | 14.44666 | 120.90473 | 2132 ft | 173 kts | 59° |
| 2026-05-03 21:16 | 14.45233 | 120.91527 | 1919 ft | 167 kts | 60° |
| 2026-05-03 21:17 | 14.45787 | 120.92558 | 1698 ft | 156 kts | 60° |
| 2026-05-03 21:17 | 14.46130 | 120.93196 | 1579 ft | 151 kts | 60° |
| 2026-05-03 21:17 | 14.46786 | 120.94416 | 1325 ft | 143 kts | 61° |
| 2026-05-03 21:17 | 14.47275 | 120.95325 | 1147 ft | 144 kts | 60° |
| 2026-05-03 21:18 | 14.47761 | 120.96228 | 975 ft | 143 kts | 60° |
| 2026-05-03 21:18 | 14.48242 | 120.97129 | 764 ft | 144 kts | 62° |
| 2026-05-03 21:18 | 14.48715 | 120.98042 | 601 ft | 146 kts | 62° |
| 2026-05-03 21:18 | 14.49216 | 120.98949 | 396 ft | 145 kts | 59° |
| 2026-05-03 21:19 | 14.49706 | 120.99848 | 192 ft | 144 kts | 63° |
| 2026-05-03 21:19 | 14.50192 | 121.00731 | 73 ft | 137 kts | 60° |
| 2026-05-03 21:19 | 14.50546 | 121.01374 | 69 ft | 63 kts | 60° |
| 2026-05-03 21:19 | 14.50675 | 121.01604 | 65 ft | 30 kts | 59° |
| 2026-05-03 21:20 | 14.50786 | 121.01733 | 68 ft | 16 kts | 38° |
| 2026-05-03 21:20 | 14.50837 | 121.01772 | 67 ft | 8 kts | 33° |
| 2026-05-03 21:20 | 14.50893 | 121.01777 | 66 ft | 9 kts | 355° |
| 2026-05-03 21:20 | 14.50941 | 121.01809 | 65 ft | 9 kts | 58° |
| 2026-05-03 21:21 | 14.50976 | 121.01870 | 67 ft | 12 kts | 59° |
| 2026-05-03 21:21 | 14.51044 | 121.01903 | 64 ft | 12 kts | 338° |
| 2026-05-03 21:21 | 14.51108 | 121.01843 | 64 ft | 13 kts | 315° |
| 2026-05-03 21:21 | 14.51182 | 121.01768 | 64 ft | 16 kts | 315° |
| 2026-05-03 21:22 | 14.51268 | 121.01679 | 73 ft | 19 kts | 314° |
| 2026-05-03 21:22 | 14.51304 | 121.01640 | 64 ft | 0 kts | 314° |
| 2026-05-03 21:22 | 14.51311 | 121.01634 | 69 ft | 8 kts | 314° |
| 2026-05-03 21:22 | 14.51361 | 121.01580 | 65 ft | 12 kts | 314° |
| 2026-05-03 21:23 | 14.51402 | 121.01567 | 64 ft | 5 kts | 41° |
| 2026-05-03 21:23 | 14.51464 | 121.01576 | 64 ft | 11 kts | 329° |
| 2026-05-03 21:23 | 14.51519 | 121.01523 | 64 ft | 8 kts | 314° |
| 2026-05-03 21:23 | 14.51537 | 121.01505 | 67 ft | 2 kts | 315° |
| 2026-05-03 21:24 | 14.51543 | 121.01498 | 64 ft | 0 kts | 316° |
| 2026-05-03 21:24 | 14.51546 | 121.01497 | 64 ft | 3 kts | 324° |
| 2026-05-03 21:24 | 14.51566 | 121.01502 | 66 ft | 2 kts | 35° |
| 2026-05-03 21:24 | 14.51584 | 121.01529 | 62 ft | 5 kts | 49° |
| 2026-05-03 21:25 | 14.51602 | 121.01548 | 67 ft | 3 kts | 45° |
| 2026-05-03 21:25 | 14.51607 | 121.01554 | 66 ft | 0 kts | 46° |
| 2026-05-03 21:25 | 14.51608 | 121.01555 | 66 ft | 1 kts | 46° |